PWSweather.com
Personal Weather Stations
Station Observations

Acton, CA 93510

Lat: 34.47703, Lon: -118.17483

Elevation: 2900

Station Type: Davis Vantage Pro 2

http://www.actonastro.com/weather/current.php

Latest ConditionsUpdated 10:17:41 PM PDT Wednesday, Jul 30, 2014
Currently Today's Max Today's Min Today's Average
Temperature 79.6°F26.4°C 97.3°F36.3°C 67.8°F19.9°C 83.6°F28.7°C
Dew Point 47.1°F8.4°C 48.4°F9.1°C 40.8°F4.9°C 43.9°F6.6°C
Winds Calm Calm 16.0 mph N25.7 kmh N - 3.2 mph 5.1 kmh
Wind Gusts -- 21.0 mph33.8 kmh - -
Humidity 32% 40% 16% 26%
Pressure 29.73 in1006.8 mb 29.78 in1008.5 mb 29.70 in1005.8 mb -
Hour Temp Dew Point Humidity Winds Wind Gusts Pressure Precip Precip Rate Daily Precip Total
10:17 PM 79.6°F26.4°C 47.1°F8.4°C 32% Calm Calm -- 29.73 in1006.8 mb 0.00 in0.0 mm 0.00 in/hr0.0 mm/hr 0.00 in0.0 mm
10:12 PM 79.8°F26.6°C 46.5°F8.1°C 31% Calm Calm 4.0 mph6.4 kmh 29.73 in1006.8 mb 0.00 in0.0 mm 0.00 in/hr0.0 mm/hr 0.00 in0.0 mm
10:07 PM 79.9°F26.6°C 46.5°F8.1°C 31% Calm Calm 4.0 mph6.4 kmh 29.73 in1006.8 mb 0.00 in0.0 mm 0.00 in/hr0.0 mm/hr 0.00 in0.0 mm
10:02 PM 79.8°F26.6°C 47.3°F8.5°C 32% 2.0 mph NE3.2 kmh NE 4.0 mph6.4 kmh 29.73 in1006.8 mb 0.00 in0.0 mm 0.00 in/hr0.0 mm/hr 0.00 in0.0 mm
09:57 PM 79.9°F26.6°C 47.4°F8.6°C 32% 2.0 mph NNW3.2 kmh NNW 3.0 mph4.8 kmh 29.73 in1006.8 mb 0.00 in0.0 mm 0.00 in/hr0.0 mm/hr 0.00 in0.0 mm
09:52 PM 80.1°F26.7°C 47.6°F8.7°C 32% Calm Calm 2.0 mph3.2 kmh 29.73 in1006.8 mb 0.00 in0.0 mm 0.00 in/hr0.0 mm/hr 0.00 in0.0 mm
09:47 PM 80.5°F26.9°C 47.9°F8.8°C 32% 1.0 mph NNW1.6 kmh NNW 2.0 mph3.2 kmh 29.73 in1006.8 mb 0.00 in0.0 mm 0.00 in/hr0.0 mm/hr 0.00 in0.0 mm
09:42 PM 80.7°F27.1°C 47.2°F8.4°C 31% Calm Calm 1.0 mph1.6 kmh 29.73 in1006.8 mb 0.00 in0.0 mm 0.00 in/hr0.0 mm/hr 0.00 in0.0 mm
09:37 PM 80.9°F27.2°C 47.4°F8.6°C 31% 1.0 mph NNW1.6 kmh NNW 2.0 mph3.2 kmh 29.73 in1006.8 mb 0.00 in0.0 mm 0.00 in/hr0.0 mm/hr 0.00 in0.0 mm
09:32 PM 81.1°F27.3°C 47.6°F8.7°C 31% 1.0 mph NNW1.6 kmh NNW 2.0 mph3.2 kmh 29.73 in1006.8 mb 0.00 in0.0 mm 0.00 in/hr0.0 mm/hr 0.00 in0.0 mm
09:27 PM 81.2°F27.3°C 46.8°F8.2°C 30% 1.0 mph NNW1.6 kmh NNW 2.0 mph3.2 kmh 29.72 in1006.4 mb 0.00 in0.0 mm 0.00 in/hr0.0 mm/hr 0.00 in0.0 mm
09:22 PM 81.4°F27.4°C 46.1°F7.8°C 29% 2.0 mph NNW3.2 kmh NNW 2.0 mph3.2 kmh 29.72 in1006.4 mb 0.00 in0.0 mm 0.00 in/hr0.0 mm/hr 0.00 in0.0 mm
09:17 PM 81.8°F27.7°C 46.4°F8.0°C 29% Calm Calm 1.0 mph1.6 kmh 29.72 in1006.4 mb 0.00 in0.0 mm 0.00 in/hr0.0 mm/hr 0.00 in0.0 mm
09:12 PM 82.4°F28.0°C 46.9°F8.3°C 29% Calm Calm -- 29.71 in1006.1 mb 0.00 in0.0 mm 0.00 in/hr0.0 mm/hr 0.00 in0.0 mm
09:08 PM 82.8°F28.2°C 46.3°F7.9°C 28% Calm Calm -- 29.71 in1006.1 mb 0.00 in0.0 mm 0.00 in/hr0.0 mm/hr 0.00 in0.0 mm
09:03 PM 83.2°F28.4°C 46.7°F8.2°C 28% 1.0 mph NNW1.6 kmh NNW 2.0 mph3.2 kmh 29.71 in1006.1 mb 0.00 in0.0 mm 0.00 in/hr0.0 mm/hr 0.00 in0.0 mm
08:58 PM 83.8°F28.8°C 46.2°F7.9°C 27% Calm Calm -- 29.71 in1006.1 mb 0.00 in0.0 mm 0.00 in/hr0.0 mm/hr 0.00 in0.0 mm
08:53 PM 84.1°F28.9°C 46.5°F8.1°C 27% 1.0 mph NNW1.6 kmh NNW 4.0 mph6.4 kmh 29.71 in1006.1 mb 0.00 in0.0 mm 0.00 in/hr0.0 mm/hr 0.00 in0.0 mm
08:48 PM 84.7°F29.3°C 48.0°F8.9°C 28% 1.0 mph NNW1.6 kmh NNW 5.0 mph8.0 kmh 29.71 in1006.1 mb 0.00 in0.0 mm 0.00 in/hr0.0 mm/hr 0.00 in0.0 mm
08:43 PM 84.9°F29.4°C 48.1°F8.9°C 28% 1.0 mph NNW1.6 kmh NNW 5.0 mph8.0 kmh 29.70 in1005.8 mb 0.00 in0.0 mm 0.00 in/hr0.0 mm/hr 0.00 in0.0 mm
08:38 PM 84.9°F29.4°C 48.1°F8.9°C 28% 3.0 mph N4.8 kmh N 6.0 mph9.7 kmh 29.70 in1005.8 mb 0.00 in0.0 mm 0.00 in/hr0.0 mm/hr 0.00 in0.0 mm
08:33 PM 85.3°F29.6°C 47.5°F8.6°C 27% Calm Calm 6.0 mph9.7 kmh 29.70 in1005.8 mb 0.00 in0.0 mm 0.00 in/hr0.0 mm/hr 0.00 in0.0 mm
08:28 PM 85.5°F29.7°C 47.7°F8.7°C 27% 1.0 mph NW1.6 kmh NW 6.0 mph9.7 kmh 29.70 in1005.8 mb 0.00 in0.0 mm 0.00 in/hr0.0 mm/hr 0.00 in0.0 mm
08:23 PM 85.9°F29.9°C 47.0°F8.3°C 26% 3.0 mph NW4.8 kmh NW 6.0 mph9.7 kmh 29.70 in1005.8 mb 0.00 in0.0 mm 0.00 in/hr0.0 mm/hr 0.00 in0.0 mm
08:18 PM 86.3°F30.2°C 47.3°F8.5°C 26% 3.0 mph NW4.8 kmh NW 8.0 mph12.9 kmh 29.70 in1005.8 mb 0.00 in0.0 mm 0.00 in/hr0.0 mm/hr 0.00 in0.0 mm
08:13 PM 86.5°F30.3°C 46.5°F8.1°C 25% 2.0 mph NW3.2 kmh NW 8.0 mph12.9 kmh 29.72 in1006.4 mb 0.00 in0.0 mm 0.00 in/hr0.0 mm/hr 0.00 in0.0 mm
08:08 PM 87.0°F30.6°C 46.9°F8.3°C 25% 3.0 mph WNW4.8 kmh WNW 8.0 mph12.9 kmh 29.72 in1006.4 mb 0.00 in0.0 mm 0.00 in/hr0.0 mm/hr 0.00 in0.0 mm
08:03 PM 87.2°F30.7°C 46.0°F7.8°C 24% 4.0 mph NW6.4 kmh NW 8.0 mph12.9 kmh 29.72 in1006.4 mb 0.00 in0.0 mm 0.00 in/hr0.0 mm/hr 0.00 in0.0 mm
07:58 PM 87.4°F30.8°C 46.1°F7.8°C 24% 2.0 mph W3.2 kmh W 8.0 mph12.9 kmh 29.71 in1006.1 mb 0.00 in0.0 mm 0.00 in/hr0.0 mm/hr 0.00 in0.0 mm
07:53 PM 87.8°F31.0°C 46.5°F8.1°C 24% 6.0 mph WNW9.7 kmh WNW 8.0 mph12.9 kmh 29.71 in1006.1 mb 0.00 in0.0 mm 0.00 in/hr0.0 mm/hr 0.00 in0.0 mm
07:48 PM 88.0°F31.1°C 45.5°F7.5°C 23% 6.0 mph NW9.7 kmh NW 9.0 mph14.5 kmh 29.71 in1006.1 mb 0.00 in0.0 mm 0.00 in/hr0.0 mm/hr 0.00 in0.0 mm
07:43 PM 88.2°F31.2°C 45.7°F7.6°C 23% 3.0 mph W4.8 kmh W 9.0 mph14.5 kmh 29.71 in1006.1 mb 0.00 in0.0 mm 0.00 in/hr0.0 mm/hr 0.00 in0.0 mm
07:38 PM 88.4°F31.3°C 45.9°F7.7°C 23% 2.0 mph NW3.2 kmh NW 10.0 mph16.1 kmh 29.71 in1006.1 mb 0.00 in0.0 mm 0.00 in/hr0.0 mm/hr 0.00 in0.0 mm
07:33 PM 88.4°F31.3°C 44.7°F7.1°C 22% 2.0 mph WNW3.2 kmh WNW 10.0 mph16.1 kmh 29.71 in1006.1 mb 0.00 in0.0 mm 0.00 in/hr0.0 mm/hr 0.00 in0.0 mm
07:28 PM 88.6°F31.4°C 44.8°F7.1°C 22% 7.0 mph WSW11.3 kmh WSW 16.0 mph25.7 kmh 29.71 in1006.1 mb 0.00 in0.0 mm 0.00 in/hr0.0 mm/hr 0.00 in0.0 mm
07:23 PM 88.6°F31.4°C 44.8°F7.1°C 22% 5.0 mph WSW8.0 kmh WSW 16.0 mph25.7 kmh 29.71 in1006.1 mb 0.00 in0.0 mm 0.00 in/hr0.0 mm/hr 0.00 in0.0 mm
07:18 PM 88.8°F31.6°C 43.8°F6.6°C 21% 6.0 mph W9.7 kmh W 16.0 mph25.7 kmh 29.71 in1006.1 mb 0.00 in0.0 mm 0.00 in/hr0.0 mm/hr 0.00 in0.0 mm
07:13 PM 89.0°F31.7°C 44.0°F6.7°C 21% 6.0 mph WNW9.7 kmh WNW 16.0 mph25.7 kmh 29.72 in1006.4 mb 0.00 in0.0 mm 0.00 in/hr0.0 mm/hr 0.00 in0.0 mm
07:08 PM 89.0°F31.7°C 44.0°F6.7°C 21% 7.0 mph WSW11.3 kmh WSW 15.0 mph24.1 kmh 29.72 in1006.4 mb 0.00 in0.0 mm 0.00 in/hr0.0 mm/hr 0.00 in0.0 mm
07:03 PM 89.3°F31.8°C 44.2°F6.8°C 21% 3.0 mph SW4.8 kmh SW 15.0 mph24.1 kmh 29.72 in1006.4 mb 0.00 in0.0 mm 0.00 in/hr0.0 mm/hr 0.00 in0.0 mm
06:58 PM 89.7°F32.1°C 44.5°F6.9°C 21% 2.0 mph WSW3.2 kmh WSW 15.0 mph24.1 kmh 29.71 in1006.1 mb 0.00 in0.0 mm 0.00 in/hr0.0 mm/hr 0.00 in0.0 mm
06:53 PM 90.1°F32.3°C 44.9°F7.2°C 21% 5.0 mph WNW8.0 kmh WNW 15.0 mph24.1 kmh 29.71 in1006.1 mb 0.00 in0.0 mm 0.00 in/hr0.0 mm/hr 0.00 in0.0 mm
06:48 PM 90.7°F32.6°C 44.1°F6.7°C 20% 13.0 mph WSW20.9 kmh WSW 14.0 mph22.5 kmh 29.71 in1006.1 mb 0.00 in0.0 mm 0.00 in/hr0.0 mm/hr 0.00 in0.0 mm
06:43 PM 91.6°F33.1°C 44.8°F7.1°C 20% 9.0 mph WSW14.5 kmh WSW 13.0 mph20.9 kmh 29.71 in1006.1 mb 0.00 in0.0 mm 0.00 in/hr0.0 mm/hr 0.00 in0.0 mm
06:38 PM 91.8°F33.2°C 43.6°F6.4°C 19% 4.0 mph W6.4 kmh W 13.0 mph20.9 kmh 29.71 in1006.1 mb 0.00 in0.0 mm 0.00 in/hr0.0 mm/hr 0.00 in0.0 mm
06:33 PM 91.6°F33.1°C 44.8°F7.1°C 20% 5.0 mph NW8.0 kmh NW 13.0 mph20.9 kmh 29.71 in1006.1 mb 0.00 in0.0 mm 0.00 in/hr0.0 mm/hr 0.00 in0.0 mm
06:28 PM 91.4°F33.0°C 44.6°F7.0°C 20% 7.0 mph SW11.3 kmh SW 13.0 mph20.9 kmh 29.70 in1005.8 mb 0.00 in0.0 mm 0.00 in/hr0.0 mm/hr 0.00 in0.0 mm
06:23 PM 91.4°F33.0°C 44.6°F7.0°C 20% 9.0 mph W14.5 kmh W 18.0 mph29.0 kmh 29.70 in1005.8 mb 0.00 in0.0 mm 0.00 in/hr0.0 mm/hr 0.00 in0.0 mm
06:18 PM 91.6°F33.1°C 44.8°F7.1°C 20% 5.0 mph NW8.0 kmh NW 18.0 mph29.0 kmh 29.70 in1005.8 mb 0.00 in0.0 mm 0.00 in/hr0.0 mm/hr 0.00 in0.0 mm
06:13 PM 91.6°F33.1°C 44.8°F7.1°C 20% 5.0 mph NW8.0 kmh NW 18.0 mph29.0 kmh 29.71 in1006.1 mb 0.00 in0.0 mm 0.00 in/hr0.0 mm/hr 0.00 in0.0 mm
06:08 PM 92.1°F33.4°C 46.5°F8.1°C 21% 7.0 mph WSW11.3 kmh WSW 18.0 mph29.0 kmh 29.71 in1006.1 mb 0.00 in0.0 mm 0.00 in/hr0.0 mm/hr 0.00 in0.0 mm
06:03 PM 92.1°F33.4°C 46.5°F8.1°C 21% 7.0 mph W11.3 kmh W 13.0 mph20.9 kmh 29.71 in1006.1 mb 0.00 in0.0 mm 0.00 in/hr0.0 mm/hr 0.00 in0.0 mm
05:58 PM 92.1°F33.4°C 46.5°F8.1°C 21% 10.0 mph WSW16.1 kmh WSW 13.0 mph20.9 kmh 29.71 in1006.1 mb 0.00 in0.0 mm 0.00 in/hr0.0 mm/hr 0.00 in0.0 mm
05:53 PM 92.3°F33.5°C 46.7°F8.2°C 21% 3.0 mph WSW4.8 kmh WSW 14.0 mph22.5 kmh 29.71 in1006.1 mb 0.00 in0.0 mm 0.00 in/hr0.0 mm/hr 0.00 in0.0 mm
05:48 PM 92.3°F33.5°C 46.7°F8.2°C 21% 12.0 mph WSW19.3 kmh WSW 14.0 mph22.5 kmh 29.71 in1006.1 mb 0.00 in0.0 mm 0.00 in/hr0.0 mm/hr 0.00 in0.0 mm
05:43 PM 92.5°F33.6°C 48.1°F8.9°C 22% 2.0 mph SW3.2 kmh SW 16.0 mph25.7 kmh 29.71 in1006.1 mb 0.00 in0.0 mm 0.00 in/hr0.0 mm/hr 0.00 in0.0 mm
05:38 PM 92.9°F33.8°C 48.4°F9.1°C 22% 9.0 mph SSW14.5 kmh SSW 16.0 mph25.7 kmh 29.71 in1006.1 mb 0.00 in0.0 mm 0.00 in/hr0.0 mm/hr 0.00 in0.0 mm
05:33 PM 92.7°F33.7°C 47.0°F8.3°C 21% 1.0 mph WSW1.6 kmh WSW 18.0 mph29.0 kmh 29.71 in1006.1 mb 0.00 in0.0 mm 0.00 in/hr0.0 mm/hr 0.00 in0.0 mm
05:28 PM 92.7°F33.7°C 47.0°F8.3°C 21% 6.0 mph W9.7 kmh W 18.0 mph29.0 kmh 29.70 in1005.8 mb 0.00 in0.0 mm 0.00 in/hr0.0 mm/hr 0.00 in0.0 mm
05:23 PM 92.7°F33.7°C 47.0°F8.3°C 21% 4.0 mph WSW6.4 kmh WSW 18.0 mph29.0 kmh 29.70 in1005.8 mb 0.00 in0.0 mm 0.00 in/hr0.0 mm/hr 0.00 in0.0 mm
05:18 PM 93.2°F34.0°C 46.1°F7.8°C 20% 9.0 mph WSW14.5 kmh WSW 18.0 mph29.0 kmh 29.70 in1005.8 mb 0.00 in0.0 mm 0.00 in/hr0.0 mm/hr 0.00 in0.0 mm
05:13 PM 93.6°F34.2°C 46.4°F8.0°C 20% 13.0 mph WSW20.9 kmh WSW 16.0 mph25.7 kmh 29.70 in1005.8 mb 0.00 in0.0 mm 0.00 in/hr0.0 mm/hr 0.00 in0.0 mm
05:08 PM 93.8°F34.3°C 46.6°F8.1°C 20% 9.0 mph NW14.5 kmh NW 16.0 mph25.7 kmh 29.70 in1005.8 mb 0.00 in0.0 mm 0.00 in/hr0.0 mm/hr 0.00 in0.0 mm
05:03 PM 94.3°F34.6°C 47.0°F8.3°C 20% 11.0 mph WNW17.7 kmh WNW 14.0 mph22.5 kmh 29.70 in1005.8 mb 0.00 in0.0 mm 0.00 in/hr0.0 mm/hr 0.00 in0.0 mm
04:58 PM 94.3°F34.6°C 47.0°F8.3°C 20% 9.0 mph WNW14.5 kmh WNW 15.0 mph24.1 kmh 29.71 in1006.1 mb 0.00 in0.0 mm 0.00 in/hr0.0 mm/hr 0.00 in0.0 mm
04:53 PM 94.0°F34.4°C 46.8°F8.2°C 20% 2.0 mph NW3.2 kmh NW 15.0 mph24.1 kmh 29.71 in1006.1 mb 0.00 in0.0 mm 0.00 in/hr0.0 mm/hr 0.00 in0.0 mm
04:48 PM 93.8°F34.3°C 46.6°F8.1°C 20% 6.0 mph NW9.7 kmh NW 15.0 mph24.1 kmh 29.71 in1006.1 mb 0.00 in0.0 mm 0.00 in/hr0.0 mm/hr 0.00 in0.0 mm
04:43 PM 94.0°F34.4°C 46.8°F8.2°C 20% 3.0 mph W4.8 kmh W 15.0 mph24.1 kmh 29.71 in1006.1 mb 0.00 in0.0 mm 0.00 in/hr0.0 mm/hr 0.00 in0.0 mm
04:38 PM 94.5°F34.7°C 47.2°F8.4°C 20% 4.0 mph NW6.4 kmh NW 15.0 mph24.1 kmh 29.71 in1006.1 mb 0.00 in0.0 mm 0.00 in/hr0.0 mm/hr 0.00 in0.0 mm
04:33 PM 94.9°F34.9°C 46.1°F7.8°C 19% 11.0 mph NW17.7 kmh NW 15.0 mph24.1 kmh 29.71 in1006.1 mb 0.00 in0.0 mm 0.00 in/hr0.0 mm/hr 0.00 in0.0 mm
04:28 PM 94.7°F34.8°C 46.0°F7.8°C 19% 5.0 mph W8.0 kmh W 15.0 mph24.1 kmh 29.71 in1006.1 mb 0.00 in0.0 mm 0.00 in/hr0.0 mm/hr 0.00 in0.0 mm
04:23 PM 94.5°F34.7°C 45.8°F7.7°C 19% 7.0 mph NW11.3 kmh NW 15.0 mph24.1 kmh 29.71 in1006.1 mb 0.00 in0.0 mm 0.00 in/hr0.0 mm/hr 0.00 in0.0 mm
04:18 PM 94.5°F34.7°C 47.2°F8.4°C 20% 13.0 mph W20.9 kmh W 14.0 mph22.5 kmh 29.71 in1006.1 mb 0.00 in0.0 mm 0.00 in/hr0.0 mm/hr 0.00 in0.0 mm
04:13 PM 94.5°F34.7°C 47.2°F8.4°C 20% 10.0 mph NW16.1 kmh NW 17.0 mph27.4 kmh 29.70 in1005.8 mb 0.00 in0.0 mm 0.00 in/hr0.0 mm/hr 0.00 in0.0 mm
04:08 PM 95.1°F35.1°C 47.7°F8.7°C 20% 10.0 mph W16.1 kmh W 17.0 mph27.4 kmh 29.70 in1005.8 mb 0.00 in0.0 mm 0.00 in/hr0.0 mm/hr 0.00 in0.0 mm
04:03 PM 95.4°F35.2°C 46.6°F8.1°C 19% 8.0 mph WNW12.9 kmh WNW 17.0 mph27.4 kmh 29.70 in1005.8 mb 0.00 in0.0 mm 0.00 in/hr0.0 mm/hr 0.00 in0.0 mm
03:58 PM 95.4°F35.2°C 46.6°F8.1°C 19% 16.0 mph N25.7 kmh N 17.0 mph27.4 kmh 29.71 in1006.1 mb 0.00 in0.0 mm 0.00 in/hr0.0 mm/hr 0.00 in0.0 mm
03:53 PM 95.4°F35.2°C 46.6°F8.1°C 19% 9.0 mph WSW14.5 kmh WSW 18.0 mph29.0 kmh 29.71 in1006.1 mb 0.00 in0.0 mm 0.00 in/hr0.0 mm/hr 0.00 in0.0 mm
03:48 PM 95.6°F35.3°C 46.7°F8.2°C 19% 3.0 mph W4.8 kmh W 18.0 mph29.0 kmh 29.71 in1006.1 mb 0.00 in0.0 mm 0.00 in/hr0.0 mm/hr 0.00 in0.0 mm
03:43 PM 95.1°F35.1°C 46.3°F7.9°C 19% 13.0 mph NW20.9 kmh NW 18.0 mph29.0 kmh 29.70 in1005.8 mb 0.00 in0.0 mm 0.00 in/hr0.0 mm/hr 0.00 in0.0 mm
03:38 PM 95.1°F35.1°C 46.3°F7.9°C 19% 6.0 mph W9.7 kmh W 18.0 mph29.0 kmh 29.70 in1005.8 mb 0.00 in0.0 mm 0.00 in/hr0.0 mm/hr 0.00 in0.0 mm
03:33 PM 95.4°F35.2°C 46.6°F8.1°C 19% 8.0 mph W12.9 kmh W 17.0 mph27.4 kmh 29.70 in1005.8 mb 0.00 in0.0 mm 0.00 in/hr0.0 mm/hr 0.00 in0.0 mm
03:28 PM 95.6°F35.3°C 46.7°F8.2°C 19% 5.0 mph WNW8.0 kmh WNW 17.0 mph27.4 kmh 29.71 in1006.1 mb 0.00 in0.0 mm 0.00 in/hr0.0 mm/hr 0.00 in0.0 mm
03:23 PM 95.9°F35.5°C 47.0°F8.3°C 19% 4.0 mph WNW6.4 kmh WNW 17.0 mph27.4 kmh 29.71 in1006.1 mb 0.00 in0.0 mm 0.00 in/hr0.0 mm/hr 0.00 in0.0 mm
03:18 PM 95.9°F35.5°C 47.0°F8.3°C 19% 7.0 mph NW11.3 kmh NW 17.0 mph27.4 kmh 29.71 in1006.1 mb 0.00 in0.0 mm 0.00 in/hr0.0 mm/hr 0.00 in0.0 mm
03:13 PM 96.6°F35.9°C 46.1°F7.8°C 18% 11.0 mph W17.7 kmh W 16.0 mph25.7 kmh 29.70 in1005.8 mb 0.00 in0.0 mm 0.00 in/hr0.0 mm/hr 0.00 in0.0 mm
03:08 PM 96.3°F35.7°C 45.8°F7.7°C 18% 9.0 mph W14.5 kmh W 17.0 mph27.4 kmh 29.70 in1005.8 mb 0.00 in0.0 mm 0.00 in/hr0.0 mm/hr 0.00 in0.0 mm
03:03 PM 96.1°F35.6°C 47.1°F8.4°C 19% 6.0 mph WNW9.7 kmh WNW 17.0 mph27.4 kmh 29.70 in1005.8 mb 0.00 in0.0 mm 0.00 in/hr0.0 mm/hr 0.00 in0.0 mm
02:58 PM 96.6°F35.9°C 46.1°F7.8°C 18% 10.0 mph W16.1 kmh W 17.0 mph27.4 kmh 29.71 in1006.1 mb 0.00 in0.0 mm 0.00 in/hr0.0 mm/hr 0.00 in0.0 mm
02:53 PM 96.6°F35.9°C 44.6°F7.0°C 17% 7.0 mph W11.3 kmh W 17.0 mph27.4 kmh 29.71 in1006.1 mb 0.00 in0.0 mm 0.00 in/hr0.0 mm/hr 0.00 in0.0 mm
02:48 PM 96.1°F35.6°C 47.1°F8.4°C 19% 13.0 mph WNW20.9 kmh WNW 13.0 mph20.9 kmh 29.71 in1006.1 mb 0.00 in0.0 mm 0.00 in/hr0.0 mm/hr 0.00 in0.0 mm
02:43 PM 95.9°F35.5°C 47.0°F8.3°C 19% 7.0 mph W11.3 kmh W 15.0 mph24.1 kmh 29.71 in1006.1 mb 0.00 in0.0 mm 0.00 in/hr0.0 mm/hr 0.00 in0.0 mm
02:38 PM 95.9°F35.5°C 45.5°F7.5°C 18% 8.0 mph W12.9 kmh W 15.0 mph24.1 kmh 29.71 in1006.1 mb 0.00 in0.0 mm 0.00 in/hr0.0 mm/hr 0.00 in0.0 mm
02:33 PM 96.3°F35.7°C 44.3°F6.8°C 17% 7.0 mph WNW11.3 kmh WNW 21.0 mph33.8 kmh 29.71 in1006.1 mb 0.00 in0.0 mm 0.00 in/hr0.0 mm/hr 0.00 in0.0 mm
02:28 PM 96.6°F35.9°C 46.1°F7.8°C 18% 9.0 mph W14.5 kmh W 21.0 mph33.8 kmh 29.71 in1006.1 mb 0.00 in0.0 mm 0.00 in/hr0.0 mm/hr 0.00 in0.0 mm
02:23 PM 96.6°F35.9°C 44.6°F7.0°C 17% 6.0 mph NW9.7 kmh NW 21.0 mph33.8 kmh 29.71 in1006.1 mb 0.00 in0.0 mm 0.00 in/hr0.0 mm/hr 0.00 in0.0 mm
02:18 PM 96.6°F35.9°C 44.6°F7.0°C 17% 12.0 mph NW19.3 kmh NW 21.0 mph33.8 kmh 29.71 in1006.1 mb 0.00 in0.0 mm 0.00 in/hr0.0 mm/hr 0.00 in0.0 mm
02:13 PM 96.8°F36.0°C 44.7°F7.1°C 17% 4.0 mph W6.4 kmh W 16.0 mph25.7 kmh 29.71 in1006.1 mb 0.00 in0.0 mm 0.00 in/hr0.0 mm/hr 0.00 in0.0 mm
02:08 PM 97.3°F36.3°C 45.1°F7.3°C 17% 15.0 mph W24.1 kmh W 16.0 mph25.7 kmh 29.71 in1006.1 mb 0.00 in0.0 mm 0.00 in/hr0.0 mm/hr 0.00 in0.0 mm
02:03 PM 97.1°F36.2°C 43.4°F6.3°C 16% 3.0 mph NNW4.8 kmh NNW 16.0 mph25.7 kmh 29.71 in1006.1 mb 0.00 in0.0 mm 0.00 in/hr0.0 mm/hr 0.00 in0.0 mm
01:58 PM 96.8°F36.0°C 43.2°F6.2°C 16% 6.0 mph NW9.7 kmh NW 16.0 mph25.7 kmh 29.71 in1006.1 mb 0.00 in0.0 mm 0.00 in/hr0.0 mm/hr 0.00 in0.0 mm
01:53 PM 96.8°F36.0°C 44.7°F7.1°C 17% 7.0 mph NW11.3 kmh NW 16.0 mph25.7 kmh 29.71 in1006.1 mb 0.00 in0.0 mm 0.00 in/hr0.0 mm/hr 0.00 in0.0 mm
01:48 PM 96.8°F36.0°C 44.7°F7.1°C 17% 3.0 mph W4.8 kmh W 14.0 mph22.5 kmh 29.71 in1006.1 mb 0.00 in0.0 mm 0.00 in/hr0.0 mm/hr 0.00 in0.0 mm
01:43 PM 96.8°F36.0°C 44.7°F7.1°C 17% 2.0 mph NW3.2 kmh NW 13.0 mph20.9 kmh 29.72 in1006.4 mb 0.00 in0.0 mm 0.00 in/hr0.0 mm/hr 0.00 in0.0 mm
01:38 PM 97.1°F36.2°C 43.4°F6.3°C 16% 9.0 mph NNW14.5 kmh NNW 13.0 mph20.9 kmh 29.72 in1006.4 mb 0.00 in0.0 mm 0.00 in/hr0.0 mm/hr 0.00 in0.0 mm
01:33 PM 96.6°F35.9°C 44.6°F7.0°C 17% 5.0 mph WSW8.0 kmh WSW 11.0 mph17.7 kmh 29.72 in1006.4 mb 0.00 in0.0 mm 0.00 in/hr0.0 mm/hr 0.00 in0.0 mm
01:28 PM 96.1°F35.6°C 44.2°F6.8°C 17% 3.0 mph SW4.8 kmh SW 15.0 mph24.1 kmh 29.72 in1006.4 mb 0.00 in0.0 mm 0.00 in/hr0.0 mm/hr 0.00 in0.0 mm
01:23 PM 95.9°F35.5°C 42.4°F5.8°C 16% 8.0 mph NW12.9 kmh NW 15.0 mph24.1 kmh 29.72 in1006.4 mb 0.00 in0.0 mm 0.00 in/hr0.0 mm/hr 0.00 in0.0 mm
01:18 PM 95.9°F35.5°C 44.0°F6.7°C 17% 11.0 mph WSW17.7 kmh WSW 15.0 mph24.1 kmh 29.72 in1006.4 mb 0.00 in0.0 mm 0.00 in/hr0.0 mm/hr 0.00 in0.0 mm
01:13 PM 95.1°F35.1°C 44.9°F7.2°C 18% 5.0 mph SW8.0 kmh SW 15.0 mph24.1 kmh 29.72 in1006.4 mb 0.00 in0.0 mm 0.00 in/hr0.0 mm/hr 0.00 in0.0 mm
01:08 PM 95.4°F35.2°C 43.6°F6.4°C 17% 6.0 mph SW9.7 kmh SW 14.0 mph22.5 kmh 29.72 in1006.4 mb 0.00 in0.0 mm 0.00 in/hr0.0 mm/hr 0.00 in0.0 mm
01:03 PM 95.4°F35.2°C 43.6°F6.4°C 17% 3.0 mph NW4.8 kmh NW 14.0 mph22.5 kmh 29.72 in1006.4 mb 0.00 in0.0 mm 0.00 in/hr0.0 mm/hr 0.00 in0.0 mm
12:58 PM 96.1°F35.6°C 44.2°F6.8°C 17% 7.0 mph WSW11.3 kmh WSW 14.0 mph22.5 kmh 29.73 in1006.8 mb 0.00 in0.0 mm 0.00 in/hr0.0 mm/hr 0.00 in0.0 mm
12:53 PM 95.9°F35.5°C 42.4°F5.8°C 16% 5.0 mph WNW8.0 kmh WNW 12.0 mph19.3 kmh 29.73 in1006.8 mb 0.00 in0.0 mm 0.00 in/hr0.0 mm/hr 0.00 in0.0 mm
12:48 PM 95.9°F35.5°C 44.0°F6.7°C 17% 3.0 mph NW4.8 kmh NW 12.0 mph19.3 kmh 29.73 in1006.8 mb 0.00 in0.0 mm 0.00 in/hr0.0 mm/hr 0.00 in0.0 mm
12:43 PM 95.4°F35.2°C 43.6°F6.4°C 17% 7.0 mph WSW11.3 kmh WSW 13.0 mph20.9 kmh 29.73 in1006.8 mb 0.00 in0.0 mm 0.00 in/hr0.0 mm/hr 0.00 in0.0 mm
12:38 PM 95.6°F35.3°C 42.2°F5.7°C 16% 5.0 mph WSW8.0 kmh WSW 13.0 mph20.9 kmh 29.73 in1006.8 mb 0.00 in0.0 mm 0.00 in/hr0.0 mm/hr 0.00 in0.0 mm
12:33 PM 95.4°F35.2°C 42.0°F5.6°C 16% 3.0 mph WSW4.8 kmh WSW 13.0 mph20.9 kmh 29.73 in1006.8 mb 0.00 in0.0 mm 0.00 in/hr0.0 mm/hr 0.00 in0.0 mm
12:28 PM 95.4°F35.2°C 43.6°F6.4°C 17% 3.0 mph WSW4.8 kmh WSW 13.0 mph20.9 kmh 29.73 in1006.8 mb 0.00 in0.0 mm 0.00 in/hr0.0 mm/hr 0.00 in0.0 mm
12:23 PM 95.4°F35.2°C 43.6°F6.4°C 17% 13.0 mph W20.9 kmh W 13.0 mph20.9 kmh 29.73 in1006.8 mb 0.00 in0.0 mm 0.00 in/hr0.0 mm/hr 0.00 in0.0 mm
12:18 PM 95.1°F35.1°C 41.8°F5.4°C 16% 2.0 mph W3.2 kmh W 13.0 mph20.9 kmh 29.73 in1006.8 mb 0.00 in0.0 mm 0.00 in/hr0.0 mm/hr 0.00 in0.0 mm
12:13 PM 94.7°F34.8°C 41.5°F5.3°C 16% 6.0 mph W9.7 kmh W 13.0 mph20.9 kmh 29.73 in1006.8 mb 0.00 in0.0 mm 0.00 in/hr0.0 mm/hr 0.00 in0.0 mm
12:08 PM 94.7°F34.8°C 43.1°F6.2°C 17% 4.0 mph W6.4 kmh W 13.0 mph20.9 kmh 29.73 in1006.8 mb 0.00 in0.0 mm 0.00 in/hr0.0 mm/hr 0.00 in0.0 mm
12:03 PM 94.5°F34.7°C 42.9°F6.1°C 17% 9.0 mph WNW14.5 kmh WNW 13.0 mph20.9 kmh 29.73 in1006.8 mb 0.00 in0.0 mm 0.00 in/hr0.0 mm/hr 0.00 in0.0 mm
11:58 AM 93.8°F34.3°C 42.3°F5.7°C 17% 5.0 mph W8.0 kmh W 12.0 mph19.3 kmh 29.73 in1006.8 mb 0.00 in0.0 mm 0.00 in/hr0.0 mm/hr 0.00 in0.0 mm
11:53 AM 94.3°F34.6°C 41.2°F5.1°C 16% 6.0 mph SSW9.7 kmh SSW 12.0 mph19.3 kmh 29.73 in1006.8 mb 0.00 in0.0 mm 0.00 in/hr0.0 mm/hr 0.00 in0.0 mm
11:48 AM 94.5°F34.7°C 42.9°F6.1°C 17% 10.0 mph WSW16.1 kmh WSW 12.0 mph19.3 kmh 29.73 in1006.8 mb 0.00 in0.0 mm 0.00 in/hr0.0 mm/hr 0.00 in0.0 mm
11:43 AM 94.3°F34.6°C 42.7°F5.9°C 17% 6.0 mph S9.7 kmh S 11.0 mph17.7 kmh 29.74 in1007.1 mb 0.00 in0.0 mm 0.00 in/hr0.0 mm/hr 0.00 in0.0 mm
11:38 AM 93.8°F34.3°C 40.8°F4.9°C 16% 3.0 mph SW4.8 kmh SW 11.0 mph17.7 kmh 29.74 in1007.1 mb 0.00 in0.0 mm 0.00 in/hr0.0 mm/hr 0.00 in0.0 mm
11:33 AM 93.8°F34.3°C 42.3°F5.7°C 17% 3.0 mph SW4.8 kmh SW 11.0 mph17.7 kmh 29.74 in1007.1 mb 0.00 in0.0 mm 0.00 in/hr0.0 mm/hr 0.00 in0.0 mm
11:28 AM 93.4°F34.1°C 42.0°F5.6°C 17% 5.0 mph W8.0 kmh W 11.0 mph17.7 kmh 29.74 in1007.1 mb 0.00 in0.0 mm 0.00 in/hr0.0 mm/hr 0.00 in0.0 mm
11:23 AM 93.4°F34.1°C 42.0°F5.6°C 17% 4.0 mph WSW6.4 kmh WSW 9.0 mph14.5 kmh 29.74 in1007.1 mb 0.00 in0.0 mm 0.00 in/hr0.0 mm/hr 0.00 in0.0 mm
11:18 AM 93.6°F34.2°C 42.2°F5.7°C 17% 2.0 mph WSW3.2 kmh WSW 10.0 mph16.1 kmh 29.74 in1007.1 mb 0.00 in0.0 mm 0.00 in/hr0.0 mm/hr 0.00 in0.0 mm
11:13 AM 93.2°F34.0°C 41.9°F5.5°C 17% 2.0 mph SW3.2 kmh SW 10.0 mph16.1 kmh 29.74 in1007.1 mb 0.00 in0.0 mm 0.00 in/hr0.0 mm/hr 0.00 in0.0 mm
11:08 AM 92.9°F33.8°C 43.1°F6.2°C 18% 5.0 mph W8.0 kmh W 12.0 mph19.3 kmh 29.74 in1007.1 mb 0.00 in0.0 mm 0.00 in/hr0.0 mm/hr 0.00 in0.0 mm
11:03 AM 92.5°F33.6°C 41.3°F5.2°C 17% 3.0 mph NNW4.8 kmh NNW 12.0 mph19.3 kmh 29.74 in1007.1 mb 0.00 in0.0 mm 0.00 in/hr0.0 mm/hr 0.00 in0.0 mm
10:58 AM 92.3°F33.5°C 42.6°F5.9°C 18% 11.0 mph SSW17.7 kmh SSW 12.0 mph19.3 kmh 29.75 in1007.5 mb 0.00 in0.0 mm 0.00 in/hr0.0 mm/hr 0.00 in0.0 mm
10:53 AM 92.3°F33.5°C 45.4°F7.4°C 20% 10.0 mph S16.1 kmh S 12.0 mph19.3 kmh 29.75 in1007.5 mb 0.00 in0.0 mm 0.00 in/hr0.0 mm/hr 0.00 in0.0 mm
10:48 AM 92.1°F33.4°C 42.5°F5.8°C 18% 2.0 mph SSW3.2 kmh SSW 7.0 mph11.3 kmh 29.75 in1007.5 mb 0.00 in0.0 mm 0.00 in/hr0.0 mm/hr 0.00 in0.0 mm
10:43 AM 92.1°F33.4°C 43.9°F6.6°C 19% 7.0 mph SW11.3 kmh SW 7.0 mph11.3 kmh 29.75 in1007.5 mb 0.00 in0.0 mm 0.00 in/hr0.0 mm/hr 0.00 in0.0 mm
10:38 AM 91.6°F33.1°C 42.1°F5.6°C 18% 1.0 mph SE1.6 kmh SE 5.0 mph8.0 kmh 29.75 in1007.5 mb 0.00 in0.0 mm 0.00 in/hr0.0 mm/hr 0.00 in0.0 mm
10:33 AM 91.6°F33.1°C 42.1°F5.6°C 18% 4.0 mph SSW6.4 kmh SSW 10.0 mph16.1 kmh 29.75 in1007.5 mb 0.00 in0.0 mm 0.00 in/hr0.0 mm/hr 0.00 in0.0 mm
10:28 AM 91.2°F32.9°C 41.7°F5.4°C 18% 2.0 mph S3.2 kmh S 10.0 mph16.1 kmh 29.75 in1007.5 mb 0.00 in0.0 mm 0.00 in/hr0.0 mm/hr 0.00 in0.0 mm
10:23 AM 90.7°F32.6°C 41.3°F5.2°C 18% 3.0 mph WNW4.8 kmh WNW 10.0 mph16.1 kmh 29.75 in1007.5 mb 0.00 in0.0 mm 0.00 in/hr0.0 mm/hr 0.00 in0.0 mm
10:18 AM 90.5°F32.5°C 42.6°F5.9°C 19% 2.0 mph S3.2 kmh S 10.0 mph16.1 kmh 29.75 in1007.5 mb 0.00 in0.0 mm 0.00 in/hr0.0 mm/hr 0.00 in0.0 mm
10:13 AM 90.5°F32.5°C 42.6°F5.9°C 19% 3.0 mph SW4.8 kmh SW 6.0 mph9.7 kmh 29.75 in1007.5 mb 0.00 in0.0 mm 0.00 in/hr0.0 mm/hr 0.00 in0.0 mm
10:08 AM 90.5°F32.5°C 42.6°F5.9°C 19% 4.0 mph SSW6.4 kmh SSW 6.0 mph9.7 kmh 29.75 in1007.5 mb 0.00 in0.0 mm 0.00 in/hr0.0 mm/hr 0.00 in0.0 mm
10:03 AM 91.0°F32.8°C 41.6°F5.3°C 18% 2.0 mph NW3.2 kmh NW 5.0 mph8.0 kmh 29.75 in1007.5 mb 0.00 in0.0 mm 0.00 in/hr0.0 mm/hr 0.00 in0.0 mm
09:58 AM 90.7°F32.6°C 42.7°F5.9°C 19% 4.0 mph W6.4 kmh W 5.0 mph8.0 kmh 29.75 in1007.5 mb 0.00 in0.0 mm 0.00 in/hr0.0 mm/hr 0.00 in0.0 mm
09:53 AM 90.3°F32.4°C 42.4°F5.8°C 19% 2.0 mph NW3.2 kmh NW 5.0 mph8.0 kmh 29.75 in1007.5 mb 0.00 in0.0 mm 0.00 in/hr0.0 mm/hr 0.00 in0.0 mm
09:48 AM 89.9°F32.2°C 42.1°F5.6°C 19% 2.0 mph WNW3.2 kmh WNW 5.0 mph8.0 kmh 29.75 in1007.5 mb 0.00 in0.0 mm 0.00 in/hr0.0 mm/hr 0.00 in0.0 mm
09:43 AM 89.5°F31.9°C 41.8°F5.4°C 19% 3.0 mph WSW4.8 kmh WSW 5.0 mph8.0 kmh 29.75 in1007.5 mb 0.00 in0.0 mm 0.00 in/hr0.0 mm/hr 0.00 in0.0 mm
09:38 AM 89.5°F31.9°C 41.8°F5.4°C 19% 3.0 mph NW4.8 kmh NW 5.0 mph8.0 kmh 29.75 in1007.5 mb 0.00 in0.0 mm 0.00 in/hr0.0 mm/hr 0.00 in0.0 mm
09:33 AM 89.0°F31.7°C 42.7°F5.9°C 20% 4.0 mph W6.4 kmh W 5.0 mph8.0 kmh 29.75 in1007.5 mb 0.00 in0.0 mm 0.00 in/hr0.0 mm/hr 0.00 in0.0 mm
09:28 AM 88.6°F31.4°C 42.4°F5.8°C 20% 1.0 mph NW1.6 kmh NW 5.0 mph8.0 kmh 29.75 in1007.5 mb 0.00 in0.0 mm 0.00 in/hr0.0 mm/hr 0.00 in0.0 mm
09:23 AM 88.2°F31.2°C 42.0°F5.6°C 20% 2.0 mph W3.2 kmh W 5.0 mph8.0 kmh 29.75 in1007.5 mb 0.00 in0.0 mm 0.00 in/hr0.0 mm/hr 0.00 in0.0 mm
09:18 AM 88.8°F31.6°C 42.5°F5.8°C 20% Calm Calm 5.0 mph8.0 kmh 29.75 in1007.5 mb 0.00 in0.0 mm 0.00 in/hr0.0 mm/hr 0.00 in0.0 mm
09:13 AM 90.3°F32.4°C 42.4°F5.8°C 19% 3.0 mph S4.8 kmh S 4.0 mph6.4 kmh 29.74 in1007.1 mb 0.00 in0.0 mm 0.00 in/hr0.0 mm/hr 0.00 in0.0 mm
09:08 AM 89.9°F32.2°C 43.4°F6.3°C 20% Calm Calm 2.0 mph3.2 kmh 29.74 in1007.1 mb 0.00 in0.0 mm 0.00 in/hr0.0 mm/hr 0.00 in0.0 mm
09:03 AM 88.8°F31.6°C 42.5°F5.8°C 20% Calm Calm -- 29.74 in1007.1 mb 0.00 in0.0 mm 0.00 in/hr0.0 mm/hr 0.00 in0.0 mm
08:58 AM 87.6°F30.9°C 44.0°F6.7°C 22% Calm Calm -- 29.75 in1007.5 mb 0.00 in0.0 mm 0.00 in/hr0.0 mm/hr 0.00 in0.0 mm
08:53 AM 86.7°F30.4°C 42.1°F5.6°C 21% Calm Calm -- 29.75 in1007.5 mb 0.00 in0.0 mm 0.00 in/hr0.0 mm/hr 0.00 in0.0 mm
08:48 AM 85.5°F29.7°C 42.3°F5.7°C 22% Calm Calm -- 29.75 in1007.5 mb 0.00 in0.0 mm 0.00 in/hr0.0 mm/hr 0.00 in0.0 mm
08:43 AM 84.5°F29.2°C 43.7°F6.5°C 24% Calm Calm -- 29.76 in1007.8 mb 0.00 in0.0 mm 0.00 in/hr0.0 mm/hr 0.00 in0.0 mm
08:38 AM 84.0°F28.9°C 43.3°F6.3°C 24% 1.0 mph E1.6 kmh E 3.0 mph4.8 kmh 29.76 in1007.8 mb 0.00 in0.0 mm 0.00 in/hr0.0 mm/hr 0.00 in0.0 mm
08:33 AM 83.6°F28.7°C 43.0°F6.1°C 24% 1.0 mph E1.6 kmh E 2.0 mph3.2 kmh 29.76 in1007.8 mb 0.00 in0.0 mm 0.00 in/hr0.0 mm/hr 0.00 in0.0 mm
08:28 AM 82.6°F28.1°C 43.2°F6.2°C 25% Calm Calm -- 29.78 in1008.5 mb 0.00 in0.0 mm 0.00 in/hr0.0 mm/hr 0.00 in0.0 mm
08:23 AM 81.2°F27.3°C 43.0°F6.1°C 26% Calm Calm -- 29.78 in1008.5 mb 0.00 in0.0 mm 0.00 in/hr0.0 mm/hr 0.00 in0.0 mm
08:18 AM 79.8°F26.6°C 42.8°F6.0°C 27% Calm Calm 4.0 mph6.4 kmh 29.78 in1008.5 mb 0.00 in0.0 mm 0.00 in/hr0.0 mm/hr 0.00 in0.0 mm
08:13 AM 78.6°F25.9°C 42.7°F5.9°C 28% 1.0 mph E1.6 kmh E 4.0 mph6.4 kmh 29.78 in1008.5 mb 0.00 in0.0 mm 0.00 in/hr0.0 mm/hr 0.00 in0.0 mm
08:08 AM 77.7°F25.4°C 42.9°F6.1°C 29% 3.0 mph ENE4.8 kmh ENE 4.0 mph6.4 kmh 29.78 in1008.5 mb 0.00 in0.0 mm 0.00 in/hr0.0 mm/hr 0.00 in0.0 mm
08:03 AM 76.7°F24.8°C 42.9°F6.1°C 30% 4.0 mph NE6.4 kmh NE 4.0 mph6.4 kmh 29.78 in1008.5 mb 0.00 in0.0 mm 0.00 in/hr0.0 mm/hr 0.00 in0.0 mm
07:58 AM 75.4°F24.1°C 42.6°F5.9°C 31% 3.0 mph NE4.8 kmh NE 3.0 mph4.8 kmh 29.77 in1008.1 mb 0.00 in0.0 mm 0.00 in/hr0.0 mm/hr 0.00 in0.0 mm
07:53 AM 74.9°F23.8°C 42.2°F5.7°C 31% Calm Calm 3.0 mph4.8 kmh 29.77 in1008.1 mb 0.00 in0.0 mm 0.00 in/hr0.0 mm/hr 0.00 in0.0 mm
07:48 AM 74.2°F23.4°C 42.4°F5.8°C 32% 1.0 mph NE1.6 kmh NE 1.0 mph1.6 kmh 29.77 in1008.1 mb 0.00 in0.0 mm 0.00 in/hr0.0 mm/hr 0.00 in0.0 mm
07:43 AM 73.7°F23.2°C 42.8°F6.0°C 33% Calm Calm 1.0 mph1.6 kmh 29.78 in1008.5 mb 0.00 in0.0 mm 0.00 in/hr0.0 mm/hr 0.00 in0.0 mm
07:38 AM 73.3°F22.9°C 42.4°F5.8°C 33% 1.0 mph NE1.6 kmh NE 1.0 mph1.6 kmh 29.78 in1008.5 mb 0.00 in0.0 mm 0.00 in/hr0.0 mm/hr 0.00 in0.0 mm
07:33 AM 72.8°F22.7°C 42.8°F6.0°C 34% Calm Calm 1.0 mph1.6 kmh 29.78 in1008.5 mb 0.00 in0.0 mm 0.00 in/hr0.0 mm/hr 0.00 in0.0 mm
07:28 AM 72.1°F22.3°C 42.9°F6.1°C 35% Calm Calm -- 29.78 in1008.5 mb 0.00 in0.0 mm 0.00 in/hr0.0 mm/hr 0.00 in0.0 mm
07:23 AM 71.3°F21.8°C 42.2°F5.7°C 35% Calm Calm -- 29.78 in1008.5 mb 0.00 in0.0 mm 0.00 in/hr0.0 mm/hr 0.00 in0.0 mm
07:18 AM 70.8°F21.6°C 43.2°F6.2°C 37% Calm Calm -- 29.78 in1008.5 mb 0.00 in0.0 mm 0.00 in/hr0.0 mm/hr 0.00 in0.0 mm
07:13 AM 70.3°F21.3°C 43.5°F6.4°C 38% Calm Calm 3.0 mph4.8 kmh 29.77 in1008.1 mb 0.00 in0.0 mm 0.00 in/hr0.0 mm/hr 0.00 in0.0 mm
07:08 AM 70.1°F21.2°C 42.6°F5.9°C 37% 2.0 mph NE3.2 kmh NE 3.0 mph4.8 kmh 29.77 in1008.1 mb 0.00 in0.0 mm 0.00 in/hr0.0 mm/hr 0.00 in0.0 mm
07:03 AM 69.8°F21.0°C 43.0°F6.1°C 38% 1.0 mph NE1.6 kmh NE 2.0 mph3.2 kmh 29.77 in1008.1 mb 0.00 in0.0 mm 0.00 in/hr0.0 mm/hr 0.00 in0.0 mm
06:58 AM 69.8°F21.0°C 42.3°F5.7°C 37% Calm Calm -- 29.77 in1008.1 mb 0.00 in0.0 mm 0.00 in/hr0.0 mm/hr 0.00 in0.0 mm
06:53 AM 69.9°F21.1°C 42.4°F5.8°C 37% Calm Calm -- 29.77 in1008.1 mb 0.00 in0.0 mm 0.00 in/hr0.0 mm/hr 0.00 in0.0 mm
06:48 AM 69.8°F21.0°C 42.3°F5.7°C 37% 1.0 mph NE1.6 kmh NE 1.0 mph1.6 kmh 29.77 in1008.1 mb 0.00 in0.0 mm 0.00 in/hr0.0 mm/hr 0.00 in0.0 mm
06:43 AM 69.4°F20.8°C 42.7°F5.9°C 38% 1.0 mph NE1.6 kmh NE 1.0 mph1.6 kmh 29.78 in1008.5 mb 0.00 in0.0 mm 0.00 in/hr0.0 mm/hr 0.00 in0.0 mm
06:38 AM 69.3°F20.7°C 42.6°F5.9°C 38% Calm Calm 3.0 mph4.8 kmh 29.78 in1008.5 mb 0.00 in0.0 mm 0.00 in/hr0.0 mm/hr 0.00 in0.0 mm
06:33 AM 68.8°F20.4°C 42.8°F6.0°C 39% 2.0 mph NE3.2 kmh NE 2.0 mph3.2 kmh 29.78 in1008.5 mb 0.00 in0.0 mm 0.00 in/hr0.0 mm/hr 0.00 in0.0 mm
06:28 AM 68.4°F20.2°C 43.1°F6.2°C 40% Calm Calm 2.0 mph3.2 kmh 29.78 in1008.5 mb 0.00 in0.0 mm 0.00 in/hr0.0 mm/hr 0.00 in0.0 mm
06:23 AM 68.3°F20.2°C 42.4°F5.8°C 39% Calm Calm 1.0 mph1.6 kmh 29.78 in1008.5 mb 0.00 in0.0 mm 0.00 in/hr0.0 mm/hr 0.00 in0.0 mm
06:18 AM 68.1°F20.1°C 42.9°F6.1°C 40% 1.0 mph NE1.6 kmh NE 3.0 mph4.8 kmh 29.78 in1008.5 mb 0.00 in0.0 mm 0.00 in/hr0.0 mm/hr 0.00 in0.0 mm
06:13 AM 67.8°F19.9°C 42.6°F5.9°C 40% 2.0 mph E3.2 kmh E 2.0 mph3.2 kmh 29.76 in1007.8 mb 0.00 in0.0 mm 0.00 in/hr0.0 mm/hr 0.00 in0.0 mm
06:08 AM 67.8°F19.9°C 41.9°F5.5°C 39% Calm Calm -- 29.76 in1007.8 mb 0.00 in0.0 mm 0.00 in/hr0.0 mm/hr 0.00 in0.0 mm
06:03 AM 67.9°F19.9°C 42.0°F5.6°C 39% Calm Calm -- 29.76 in1007.8 mb 0.00 in0.0 mm 0.00 in/hr0.0 mm/hr 0.00 in0.0 mm
05:58 AM 67.9°F19.9°C 42.0°F5.6°C 39% Calm Calm 2.0 mph3.2 kmh 29.75 in1007.5 mb 0.00 in0.0 mm 0.00 in/hr0.0 mm/hr 0.00 in0.0 mm
05:53 AM 67.9°F19.9°C 42.0°F5.6°C 39% Calm Calm 2.0 mph3.2 kmh 29.75 in1007.5 mb 0.00 in0.0 mm 0.00 in/hr0.0 mm/hr 0.00 in0.0 mm
05:48 AM 68.1°F20.1°C 42.2°F5.7°C 39% Calm Calm 2.0 mph3.2 kmh 29.75 in1007.5 mb 0.00 in0.0 mm 0.00 in/hr0.0 mm/hr 0.00 in0.0 mm
05:43 AM 68.3°F20.2°C 42.4°F5.8°C 39% 1.0 mph E1.6 kmh E 2.0 mph3.2 kmh 29.75 in1007.5 mb 0.00 in0.0 mm 0.00 in/hr0.0 mm/hr 0.00 in0.0 mm
05:38 AM 68.6°F20.3°C 42.0°F5.6°C 38% Calm Calm -- 29.75 in1007.5 mb 0.00 in0.0 mm 0.00 in/hr0.0 mm/hr 0.00 in0.0 mm
05:33 AM 68.6°F20.3°C 42.0°F5.6°C 38% Calm Calm 1.0 mph1.6 kmh 29.75 in1007.5 mb 0.00 in0.0 mm 0.00 in/hr0.0 mm/hr 0.00 in0.0 mm
05:28 AM 68.8°F20.4°C 42.1°F5.6°C 38% Calm Calm -- 29.75 in1007.5 mb 0.00 in0.0 mm 0.00 in/hr0.0 mm/hr 0.00 in0.0 mm
05:23 AM 68.8°F20.4°C 42.1°F5.6°C 38% 1.0 mph E1.6 kmh E 2.0 mph3.2 kmh 29.75 in1007.5 mb 0.00 in0.0 mm 0.00 in/hr0.0 mm/hr 0.00 in0.0 mm
05:18 AM 68.8°F20.4°C 42.1°F5.6°C 38% Calm Calm -- 29.75 in1007.5 mb 0.00 in0.0 mm 0.00 in/hr0.0 mm/hr 0.00 in0.0 mm
05:13 AM 68.9°F20.5°C 42.2°F5.7°C 38% Calm Calm 1.0 mph1.6 kmh 29.74 in1007.1 mb 0.00 in0.0 mm 0.00 in/hr0.0 mm/hr 0.00 in0.0 mm
05:08 AM 68.9°F20.5°C 42.2°F5.7°C 38% 1.0 mph E1.6 kmh E 1.0 mph1.6 kmh 29.74 in1007.1 mb 0.00 in0.0 mm 0.00 in/hr0.0 mm/hr 0.00 in0.0 mm
05:03 AM 69.3°F20.7°C 41.9°F5.5°C 37% Calm Calm 1.0 mph1.6 kmh 29.74 in1007.1 mb 0.00 in0.0 mm 0.00 in/hr0.0 mm/hr 0.00 in0.0 mm
04:58 AM 69.4°F20.8°C 42.0°F5.6°C 37% Calm Calm 1.0 mph1.6 kmh 29.74 in1007.1 mb 0.00 in0.0 mm 0.00 in/hr0.0 mm/hr 0.00 in0.0 mm
04:53 AM 69.6°F20.9°C 42.2°F5.7°C 37% Calm Calm -- 29.74 in1007.1 mb 0.00 in0.0 mm 0.00 in/hr0.0 mm/hr 0.00 in0.0 mm
04:48 AM 69.8°F21.0°C 42.3°F5.7°C 37% Calm Calm -- 29.74 in1007.1 mb 0.00 in0.0 mm 0.00 in/hr0.0 mm/hr 0.00 in0.0 mm
04:43 AM 69.9°F21.1°C 41.7°F5.4°C 36% Calm Calm -- 29.74 in1007.1 mb 0.00 in0.0 mm 0.00 in/hr0.0 mm/hr 0.00 in0.0 mm
04:38 AM 70.3°F21.3°C 42.1°F5.6°C 36% Calm Calm -- 29.74 in1007.1 mb 0.00 in0.0 mm 0.00 in/hr0.0 mm/hr 0.00 in0.0 mm
04:33 AM 70.6°F21.4°C 41.6°F5.3°C 35% Calm Calm 1.0 mph1.6 kmh 29.74 in1007.1 mb 0.00 in0.0 mm 0.00 in/hr0.0 mm/hr 0.00 in0.0 mm
04:28 AM 70.8°F21.6°C 41.8°F5.4°C 35% Calm Calm -- 29.74 in1007.1 mb 0.00 in0.0 mm 0.00 in/hr0.0 mm/hr 0.00 in0.0 mm
04:23 AM 70.9°F21.6°C 41.9°F5.5°C 35% Calm Calm -- 29.74 in1007.1 mb 0.00 in0.0 mm 0.00 in/hr0.0 mm/hr 0.00 in0.0 mm
04:18 AM 70.8°F21.6°C 41.8°F5.4°C 35% 1.0 mph NE1.6 kmh NE 3.0 mph4.8 kmh 29.74 in1007.1 mb 0.00 in0.0 mm 0.00 in/hr0.0 mm/hr 0.00 in0.0 mm
04:13 AM 70.8°F21.6°C 41.8°F5.4°C 35% 2.0 mph NE3.2 kmh NE 2.0 mph3.2 kmh 29.74 in1007.1 mb 0.00 in0.0 mm 0.00 in/hr0.0 mm/hr 0.00 in0.0 mm
04:08 AM 70.9°F21.6°C 41.9°F5.5°C 35% Calm Calm 1.0 mph1.6 kmh 29.74 in1007.1 mb 0.00 in0.0 mm 0.00 in/hr0.0 mm/hr 0.00 in0.0 mm
04:03 AM 70.8°F21.6°C 41.8°F5.4°C 35% 2.0 mph NE3.2 kmh NE 3.0 mph4.8 kmh 29.74 in1007.1 mb 0.00 in0.0 mm 0.00 in/hr0.0 mm/hr 0.00 in0.0 mm
03:58 AM 70.1°F21.2°C 41.9°F5.5°C 36% 2.0 mph ENE3.2 kmh ENE 3.0 mph4.8 kmh 29.74 in1007.1 mb 0.00 in0.0 mm 0.00 in/hr0.0 mm/hr 0.00 in0.0 mm
03:53 AM 69.9°F21.1°C 41.7°F5.4°C 36% 1.0 mph ENE1.6 kmh ENE 2.0 mph3.2 kmh 29.74 in1007.1 mb 0.00 in0.0 mm 0.00 in/hr0.0 mm/hr 0.00 in0.0 mm
03:48 AM 69.8°F21.0°C 42.3°F5.7°C 37% 2.0 mph ENE3.2 kmh ENE 2.0 mph3.2 kmh 29.74 in1007.1 mb 0.00 in0.0 mm 0.00 in/hr0.0 mm/hr 0.00 in0.0 mm
03:43 AM 69.6°F20.9°C 42.2°F5.7°C 37% 1.0 mph ENE1.6 kmh ENE 2.0 mph3.2 kmh 29.74 in1007.1 mb 0.00 in0.0 mm 0.00 in/hr0.0 mm/hr 0.00 in0.0 mm
03:38 AM 69.8°F21.0°C 42.3°F5.7°C 37% Calm Calm -- 29.74 in1007.1 mb 0.00 in0.0 mm 0.00 in/hr0.0 mm/hr 0.00 in0.0 mm
03:33 AM 69.8°F21.0°C 42.3°F5.7°C 37% 1.0 mph ENE1.6 kmh ENE 2.0 mph3.2 kmh 29.74 in1007.1 mb 0.00 in0.0 mm 0.00 in/hr0.0 mm/hr 0.00 in0.0 mm
03:28 AM 69.9°F21.1°C 42.4°F5.8°C 37% 1.0 mph ENE1.6 kmh ENE 2.0 mph3.2 kmh 29.74 in1007.1 mb 0.00 in0.0 mm 0.00 in/hr0.0 mm/hr 0.00 in0.0 mm
03:23 AM 70.3°F21.3°C 42.8°F6.0°C 37% Calm Calm 1.0 mph1.6 kmh 29.74 in1007.1 mb 0.00 in0.0 mm 0.00 in/hr0.0 mm/hr 0.00 in0.0 mm
03:18 AM 70.6°F21.4°C 41.6°F5.3°C 35% Calm Calm -- 29.74 in1007.1 mb 0.00 in0.0 mm 0.00 in/hr0.0 mm/hr 0.00 in0.0 mm
03:13 AM 70.6°F21.4°C 41.6°F5.3°C 35% Calm Calm -- 29.74 in1007.1 mb 0.00 in0.0 mm 0.00 in/hr0.0 mm/hr 0.00 in0.0 mm
03:08 AM 70.8°F21.6°C 41.8°F5.4°C 35% Calm Calm -- 29.74 in1007.1 mb 0.00 in0.0 mm 0.00 in/hr0.0 mm/hr 0.00 in0.0 mm
03:03 AM 70.8°F21.6°C 41.8°F5.4°C 35% Calm Calm 1.0 mph1.6 kmh 29.74 in1007.1 mb 0.00 in0.0 mm 0.00 in/hr0.0 mm/hr 0.00 in0.0 mm
02:58 AM 70.9°F21.6°C 41.9°F5.5°C 35% Calm Calm -- 29.74 in1007.1 mb 0.00 in0.0 mm 0.00 in/hr0.0 mm/hr 0.00 in0.0 mm
02:53 AM 71.1°F21.7°C 42.0°F5.6°C 35% 1.0 mph ENE1.6 kmh ENE 2.0 mph3.2 kmh 29.74 in1007.1 mb 0.00 in0.0 mm 0.00 in/hr0.0 mm/hr 0.00 in0.0 mm
02:48 AM 71.1°F21.7°C 42.0°F5.6°C 35% Calm Calm 2.0 mph3.2 kmh 29.74 in1007.1 mb 0.00 in0.0 mm 0.00 in/hr0.0 mm/hr 0.00 in0.0 mm
02:43 AM 71.3°F21.8°C 43.0°F6.1°C 36% 1.0 mph ENE1.6 kmh ENE 2.0 mph3.2 kmh 29.73 in1006.8 mb 0.00 in0.0 mm 0.00 in/hr0.0 mm/hr 0.00 in0.0 mm
02:38 AM 71.8°F22.1°C 42.7°F5.9°C 35% Calm Calm -- 29.73 in1006.8 mb 0.00 in0.0 mm 0.00 in/hr0.0 mm/hr 0.00 in0.0 mm
02:33 AM 72.1°F22.3°C 42.9°F6.1°C 35% Calm Calm -- 29.73 in1006.8 mb 0.00 in0.0 mm 0.00 in/hr0.0 mm/hr 0.00 in0.0 mm
02:28 AM 72.7°F22.6°C 43.5°F6.4°C 35% Calm Calm -- 29.74 in1007.1 mb 0.00 in0.0 mm 0.00 in/hr0.0 mm/hr 0.00 in0.0 mm
02:23 AM 73.0°F22.8°C 43.7°F6.5°C 35% Calm Calm 5.0 mph8.0 kmh 29.74 in1007.1 mb 0.00 in0.0 mm 0.00 in/hr0.0 mm/hr 0.00 in0.0 mm
02:18 AM 72.7°F22.6°C 42.7°F5.9°C 34% 1.0 mph ENE1.6 kmh ENE 5.0 mph8.0 kmh 29.74 in1007.1 mb 0.00 in0.0 mm 0.00 in/hr0.0 mm/hr 0.00 in0.0 mm
02:13 AM 72.0°F22.2°C 42.8°F6.0°C 35% 2.0 mph ENE3.2 kmh ENE 5.0 mph8.0 kmh 29.74 in1007.1 mb 0.00 in0.0 mm 0.00 in/hr0.0 mm/hr 0.00 in0.0 mm
02:08 AM 71.3°F21.8°C 43.0°F6.1°C 36% 2.0 mph NE3.2 kmh NE 3.0 mph4.8 kmh 29.74 in1007.1 mb 0.00 in0.0 mm 0.00 in/hr0.0 mm/hr 0.00 in0.0 mm
02:03 AM 70.9°F21.6°C 42.6°F5.9°C 36% 2.0 mph NE3.2 kmh NE 2.0 mph3.2 kmh 29.74 in1007.1 mb 0.00 in0.0 mm 0.00 in/hr0.0 mm/hr 0.00 in0.0 mm
01:58 AM 70.8°F21.6°C 42.5°F5.8°C 36% Calm Calm 2.0 mph3.2 kmh 29.74 in1007.1 mb 0.00 in0.0 mm 0.00 in/hr0.0 mm/hr 0.00 in0.0 mm
01:53 AM 70.8°F21.6°C 42.5°F5.8°C 36% Calm Calm 2.0 mph3.2 kmh 29.74 in1007.1 mb 0.00 in0.0 mm 0.00 in/hr0.0 mm/hr 0.00 in0.0 mm
01:48 AM 70.8°F21.6°C 43.2°F6.2°C 37% 2.0 mph NE3.2 kmh NE 2.0 mph3.2 kmh 29.74 in1007.1 mb 0.00 in0.0 mm 0.00 in/hr0.0 mm/hr 0.00 in0.0 mm
01:43 AM 70.8°F21.6°C 42.5°F5.8°C 36% Calm Calm -- 29.75 in1007.5 mb 0.00 in0.0 mm 0.00 in/hr0.0 mm/hr 0.00 in0.0 mm
01:38 AM 70.9°F21.6°C 42.6°F5.9°C 36% Calm Calm -- 29.75 in1007.5 mb 0.00 in0.0 mm 0.00 in/hr0.0 mm/hr 0.00 in0.0 mm
01:33 AM 70.9°F21.6°C 42.6°F5.9°C 36% 1.0 mph NE1.6 kmh NE 2.0 mph3.2 kmh 29.75 in1007.5 mb 0.00 in0.0 mm 0.00 in/hr0.0 mm/hr 0.00 in0.0 mm
01:28 AM 71.1°F21.7°C 42.0°F5.6°C 35% Calm Calm -- 29.75 in1007.5 mb 0.00 in0.0 mm 0.00 in/hr0.0 mm/hr 0.00 in0.0 mm
01:23 AM 71.3°F21.8°C 42.2°F5.7°C 35% Calm Calm 2.0 mph3.2 kmh 29.75 in1007.5 mb 0.00 in0.0 mm 0.00 in/hr0.0 mm/hr 0.00 in0.0 mm
01:18 AM 71.5°F21.9°C 42.4°F5.8°C 35% Calm Calm 1.0 mph1.6 kmh 29.75 in1007.5 mb 0.00 in0.0 mm 0.00 in/hr0.0 mm/hr 0.00 in0.0 mm
01:13 AM 71.5°F21.9°C 42.4°F5.8°C 35% 1.0 mph NE1.6 kmh NE 2.0 mph3.2 kmh 29.76 in1007.8 mb 0.00 in0.0 mm 0.00 in/hr0.0 mm/hr 0.00 in0.0 mm
01:08 AM 71.5°F21.9°C 42.4°F5.8°C 35% 2.0 mph NE3.2 kmh NE 2.0 mph3.2 kmh 29.76 in1007.8 mb 0.00 in0.0 mm 0.00 in/hr0.0 mm/hr 0.00 in0.0 mm
01:03 AM 71.5°F21.9°C 42.4°F5.8°C 35% Calm Calm -- 29.76 in1007.8 mb 0.00 in0.0 mm 0.00 in/hr0.0 mm/hr 0.00 in0.0 mm
12:58 AM 71.6°F22.0°C 42.5°F5.8°C 35% Calm Calm -- 29.76 in1007.8 mb 0.00 in0.0 mm 0.00 in/hr0.0 mm/hr 0.00 in0.0 mm
12:53 AM 72.0°F22.2°C 42.8°F6.0°C 35% Calm Calm -- 29.76 in1007.8 mb 0.00 in0.0 mm 0.00 in/hr0.0 mm/hr 0.00 in0.0 mm
12:48 AM 72.0°F22.2°C 42.8°F6.0°C 35% Calm Calm -- 29.76 in1007.8 mb 0.00 in0.0 mm 0.00 in/hr0.0 mm/hr 0.00 in0.0 mm
12:43 AM 72.0°F22.2°C 42.8°F6.0°C 35% Calm Calm -- 29.76 in1007.8 mb 0.00 in0.0 mm 0.00 in/hr0.0 mm/hr 0.00 in0.0 mm
12:38 AM 72.0°F22.2°C 42.8°F6.0°C 35% 2.0 mph NE3.2 kmh NE 2.0 mph3.2 kmh 29.76 in1007.8 mb 0.00 in0.0 mm 0.00 in/hr0.0 mm/hr 0.00 in0.0 mm
12:33 AM 72.0°F22.2°C 42.8°F6.0°C 35% 1.0 mph NE1.6 kmh NE 1.0 mph1.6 kmh 29.76 in1007.8 mb 0.00 in0.0 mm 0.00 in/hr0.0 mm/hr 0.00 in0.0 mm
12:28 AM 72.0°F22.2°C 42.8°F6.0°C 35% Calm Calm -- 29.76 in1007.8 mb 0.00 in0.0 mm 0.00 in/hr0.0 mm/hr 0.00 in0.0 mm
12:23 AM 72.0°F22.2°C 42.8°F6.0°C 35% 1.0 mph NE1.6 kmh NE 1.0 mph1.6 kmh 29.76 in1007.8 mb 0.00 in0.0 mm 0.00 in/hr0.0 mm/hr 0.00 in0.0 mm
12:18 AM 72.1°F22.3°C 42.9°F6.1°C 35% 1.0 mph NE1.6 kmh NE 1.0 mph1.6 kmh 29.76 in1007.8 mb 0.00 in0.0 mm 0.00 in/hr0.0 mm/hr 0.00 in0.0 mm
12:13 AM 72.3°F22.4°C 43.1°F6.2°C 35% Calm Calm 2.0 mph3.2 kmh 29.77 in1008.1 mb 0.00 in0.0 mm 0.00 in/hr0.0 mm/hr 0.00 in0.0 mm
12:08 AM 72.5°F22.5°C 42.5°F5.8°C 34% Calm Calm -- 29.77 in1008.1 mb 0.00 in0.0 mm 0.00 in/hr0.0 mm/hr 0.00 in0.0 mm
12:03 AM 72.5°F22.5°C 42.5°F5.8°C 34% Calm Calm 1.0 mph1.6 kmh 29.77 in1008.1 mb 0.00 in0.0 mm 0.00 in/hr0.0 mm/hr 0.00 in0.0 mm